Time;durP1;ratioP1;P1;durP2;ratioP2;P2;SDS_P1;SDS_P2;PMS_P1;PMS_P2;Temp;Humidity;BMP_temperature;BMP_pressure;BME280_temperature;BME280_humidity;BME280_pressure;Samples;Min_cycle;Max_cycle;Signal;HPM_P1;HPM_P2
2024/01/10 00:01:40;;;;;;;22.95;9.90;;;-6.20;99.90;;;;;;5093647;28;20535;-39
2024/01/10 00:04:05;;;;;;;26.63;10.90;;;-6.20;99.90;;;;;;5094796;28;20569;-40
2024/01/10 00:06:31;;;;;;;24.58;10.98;;;-6.10;99.90;;;;;;5102132;28;20028;-40
2024/01/10 00:08:56;;;;;;;21.02;10.20;;;-6.10;99.90;;;;;;5102952;28;20019;-39
2024/01/10 00:11:22;;;;;;;27.27;12.05;;;-6.20;99.90;;;;;;5097111;28;20028;-41
2024/01/10 00:13:48;;;;;;;24.05;10.27;;;-6.20;99.90;;;;;;5093369;27;20419;-40
2024/01/10 00:16:14;;;;;;;25.92;11.63;;;-6.10;99.90;;;;;;5097471;28;20040;-40
2024/01/10 00:18:40;;;;;;;34.17;12.55;;;-6.10;99.90;;;;;;5092822;28;20489;-42
2024/01/10 00:21:06;;;;;;;19.50;10.18;;;-6.20;99.90;;;;;;5093268;28;20087;-40
2024/01/10 00:23:32;;;;;;;26.90;11.52;;;-6.20;99.90;;;;;;5093979;28;20035;-40
2024/01/10 00:25:57;;;;;;;26.52;12.43;;;-6.20;99.90;;;;;;5093285;28;20481;-40
2024/01/10 00:28:23;;;;;;;26.58;11.73;;;-6.20;99.90;;;;;;5093697;28;20477;-40
2024/01/10 00:30:49;;;;;;;23.27;10.77;;;-6.20;99.90;;;;;;5093331;28;20324;-40
2024/01/10 00:33:15;;;;;;;29.08;11.48;;;-6.20;99.90;;;;;;5093316;28;20028;-40
2024/01/10 00:35:41;;;;;;;23.27;10.23;;;-6.20;99.90;;;;;;5094246;28;20106;-40
2024/01/10 00:38:06;;;;;;;24.80;11.20;;;-6.20;99.90;;;;;;5092932;28;20069;-40
2024/01/10 00:40:32;;;;;;;26.15;10.10;;;-6.20;99.90;;;;;;5093934;28;20028;-40
2024/01/10 00:42:57;;;;;;;25.30;11.45;;;-6.20;99.90;;;;;;5093380;28;20091;-40
2024/01/10 00:45:24;;;;;;;25.13;11.32;;;-6.20;99.90;;;;;;5093874;28;20028;-41
2024/01/10 00:47:49;;;;;;;26.48;11.43;;;-6.20;99.90;;;;;;5092607;28;20369;-40
2024/01/10 00:50:16;;;;;;;21.35;10.40;;;-6.30;99.90;;;;;;5092003;28;20031;-40
2024/01/10 00:52:42;;;;;;;24.38;11.02;;;-6.30;99.90;;;;;;5092876;28;20058;-41
2024/01/10 00:55:08;;;;;;;26.38;10.65;;;-6.40;99.90;;;;;;5093172;28;20043;-40
2024/01/10 00:57:33;;;;;;;24.98;11.40;;;-6.40;99.90;;;;;;5093995;28;20031;-40
2024/01/10 00:59:59;;;;;;;25.67;11.55;;;-6.40;99.90;;;;;;5092847;28;20487;-41
2024/01/10 01:02:25;;;;;;;23.83;9.65;;;-6.50;99.90;;;;;;5093720;28;20032;-40
2024/01/10 01:04:50;;;;;;;22.05;11.38;;;-6.40;99.90;;;;;;5092081;28;20085;-40
2024/01/10 01:07:16;;;;;;;20.98;9.55;;;-6.40;99.90;;;;;;5091888;28;20056;-40
2024/01/10 01:09:41;;;;;;;23.17;10.30;;;-6.40;99.90;;;;;;5092452;28;20016;-40
2024/01/10 01:12:07;;;;;;;28.83;11.25;;;-6.40;99.90;;;;;;5092019;28;20028;-40
2024/01/10 01:14:33;;;;;;;29.02;11.65;;;-6.40;99.90;;;;;;5094379;28;20016;-41
2024/01/10 01:16:58;;;;;;;24.83;10.52;;;-6.40;99.90;;;;;;5092872;28;20065;-41
2024/01/10 01:19:24;;;;;;;26.02;12.52;;;-6.40;99.90;;;;;;5093208;28;20107;-40
2024/01/10 01:21:49;;;;;;;26.27;11.52;;;-6.50;99.90;;;;;;5092052;28;20052;-40
2024/01/10 01:24:15;;;;;;;26.85;11.18;;;-6.40;99.90;;;;;;5092835;28;20335;-40
2024/01/10 01:26:40;;;;;;;24.08;12.10;;;-6.40;99.90;;;;;;5094537;28;20031;-40
2024/01/10 01:29:08;;;;;;;28.45;11.55;;;-6.50;99.90;;;;;;5091266;28;20035;-40
2024/01/10 01:31:34;;;;;;;30.23;12.27;;;-6.50;99.90;;;;;;5094291;28;20042;-41
2024/01/10 01:33:59;;;;;;;24.23;10.68;;;-6.50;99.90;;;;;;5092990;28;20514;-39
2024/01/10 01:36:25;;;;;;;25.80;11.27;;;-6.50;99.90;;;;;;5093494;28;20020;-39
2024/01/10 01:38:50;;;;;;;28.77;12.27;;;-6.50;99.90;;;;;;5092966;28;20028;-40
2024/01/10 01:41:17;;;;;;;32.75;12.70;;;-6.50;99.90;;;;;;5091621;28;20389;-39
2024/01/10 01:43:43;;;;;;;27.25;11.63;;;-6.50;99.90;;;;;;5094423;28;20030;-39
2024/01/10 01:46:09;;;;;;;32.47;13.45;;;-6.50;99.90;;;;;;5093014;28;20028;-42
2024/01/10 01:48:35;;;;;;;31.08;13.00;;;-6.50;99.90;;;;;;5094215;28;20516;-39
2024/01/10 01:51:05;;;;;;;31.63;13.13;;;-6.50;99.90;;;;;;5093134;28;20581;-40
2024/01/10 01:53:31;;;;;;;30.90;13.85;;;-6.50;99.90;;;;;;5094473;28;20065;-40
2024/01/10 01:56:00;;;;;;;29.73;13.00;;;-6.50;99.90;;;;;;5092828;28;20028;-40
2024/01/10 01:58:25;;;;;;;27.65;12.73;;;-6.50;99.90;;;;;;5092426;28;20020;-41
2024/01/10 02:00:52;;;;;;;36.85;13.27;;;-6.50;99.90;;;;;;5093172;28;20538;-41
2024/01/10 02:03:17;;;;;;;32.60;14.45;;;-6.50;99.90;;;;;;5092830;28;20024;-41
2024/01/10 02:05:43;;;;;;;37.05;13.63;;;-6.50;99.90;;;;;;5093988;28;20508;-38
2024/01/10 02:08:09;;;;;;;23.88;11.23;;;-6.50;99.90;;;;;;5092442;28;20409;-40
2024/01/10 02:10:34;;;;;;;36.22;13.57;;;-6.50;99.90;;;;;;5093895;28;20146;-39
2024/01/10 02:13:01;;;;;;;32.42;14.65;;;-6.50;99.90;;;;;;5093036;28;20012;-39
2024/01/10 02:15:27;;;;;;;30.60;13.05;;;-6.50;99.90;;;;;;5093712;28;20089;-39
2024/01/10 02:17:52;;;;;;;33.00;13.43;;;-6.50;99.90;;;;;;5093016;28;20110;-39
2024/01/10 02:20:18;;;;;;;29.63;13.27;;;-6.50;99.90;;;;;;5092170;28;20024;-39
2024/01/10 02:22:44;;;;;;;31.55;13.82;;;-6.60;99.90;;;;;;5092416;28;20055;-39
2024/01/10 02:25:11;;;;;;;33.38;13.23;;;-6.60;99.90;;;;;;5092594;28;20028;-39
2024/01/10 02:27:37;;;;;;;34.35;14.02;;;-6.50;99.90;;;;;;5093880;28;20020;-39
2024/01/10 02:30:04;;;;;;;35.53;14.60;;;-6.60;99.90;;;;;;5092254;28;20020;-39
2024/01/10 02:32:30;;;;;;;35.78;14.30;;;-6.60;99.90;;;;;;5093833;28;20034;-40
2024/01/10 02:34:55;;;;;;;35.17;15.75;;;-6.60;99.90;;;;;;5092594;28;20480;-40
2024/01/10 02:37:21;;;;;;;36.72;14.85;;;-6.60;99.90;;;;;;5091946;28;20027;-40
2024/01/10 02:39:47;;;;;;;32.72;14.35;;;-6.60;99.90;;;;;;5092455;28;20038;-39
2024/01/10 02:42:12;;;;;;;37.67;14.63;;;-6.60;99.90;;;;;;5090720;28;20545;-39
2024/01/10 02:44:38;;;;;;;31.00;13.43;;;-6.60;99.90;;;;;;5092453;28;20051;-39
2024/01/10 02:47:04;;;;;;;38.72;14.85;;;-6.60;99.90;;;;;;5090681;28;20074;-39
2024/01/10 02:49:30;;;;;;;31.95;13.60;;;-6.60;99.90;;;;;;5092125;28;20024;-38
2024/01/10 02:51:55;;;;;;;30.05;14.20;;;-6.60;99.90;;;;;;5091660;28;20080;-39
2024/01/10 02:54:21;;;;;;;33.08;14.57;;;-6.60;99.90;;;;;;5091088;28;20036;-38
2024/01/10 02:56:46;;;;;;;26.63;13.80;;;-6.70;99.90;;;;;;5092946;28;20115;-39
2024/01/10 02:59:12;;;;;;;34.67;13.45;;;-6.70;99.90;;;;;;5092219;28;20039;-39
2024/01/10 03:01:37;;;;;;;32.67;13.82;;;-6.70;99.90;;;;;;5092769;28;20039;-39
2024/01/10 03:04:03;;;;;;;36.78;14.00;;;-6.70;99.90;;;;;;5092304;28;20103;-39
2024/01/10 03:06:29;;;;;;;34.13;14.75;;;-6.70;99.90;;;;;;5093633;28;20181;-39
2024/01/10 03:08:55;;;;;;;31.88;13.45;;;-6.70;99.90;;;;;;5092437;28;20061;-40
2024/01/10 03:11:21;;;;;;;34.85;14.02;;;-6.70;99.90;;;;;;5090394;28;20627;-39
2024/01/10 03:13:47;;;;;;;38.05;15.40;;;-6.70;99.90;;;;;;5092773;28;20110;-40
2024/01/10 03:16:14;;;;;;;40.65;16.25;;;-6.70;99.90;;;;;;5092164;28;20239;-39
2024/01/10 03:18:39;;;;;;;33.75;15.73;;;-6.70;99.90;;;;;;5094286;28;20482;-39
2024/01/10 03:21:05;;;;;;;37.25;14.90;;;-6.70;99.90;;;;;;5092709;28;20103;-39
2024/01/10 03:23:31;;;;;;;37.35;15.55;;;-6.70;99.90;;;;;;5092928;28;20559;-40
2024/01/10 03:25:57;;;;;;;35.60;16.40;;;-6.70;99.90;;;;;;5090095;28;20020;-39
2024/01/10 03:28:23;;;;;;;36.83;16.55;;;-6.70;99.90;;;;;;5088291;28;20021;-40
2024/01/10 03:30:49;;;;;;;39.70;16.48;;;-6.80;99.90;;;;;;5088313;28;20431;-40
2024/01/10 03:33:15;;;;;;;39.83;16.55;;;-6.80;99.90;;;;;;5088345;28;20542;-39
2024/01/10 03:35:41;;;;;;;38.45;17.30;;;-6.80;99.90;;;;;;5088165;28;20127;-39
2024/01/10 03:38:07;;;;;;;34.92;15.50;;;-6.80;99.90;;;;;;5088138;28;20089;-39
2024/01/10 03:40:32;;;;;;;40.90;16.83;;;-6.90;99.90;;;;;;5087700;28;20432;-39
2024/01/10 03:42:58;;;;;;;40.30;16.70;;;-6.90;99.90;;;;;;5087999;28;20095;-39
2024/01/10 03:45:24;;;;;;;39.05;15.93;;;-6.90;99.90;;;;;;5087870;28;20028;-39
2024/01/10 03:47:50;;;;;;;41.55;15.57;;;-6.90;99.90;;;;;;5086035;28;20108;-40
2024/01/10 03:50:19;;;;;;;41.92;17.15;;;-6.90;99.90;;;;;;5088159;28;20028;-39
2024/01/10 03:52:46;;;;;;;33.25;16.85;;;-6.90;99.90;;;;;;5084998;28;20051;-40
2024/01/10 03:55:15;;;;;;;38.42;17.58;;;-6.90;99.90;;;;;;5087633;28;20535;-40
2024/01/10 03:57:42;;;;;;;35.60;15.27;;;-6.90;99.90;;;;;;5087904;28;20028;-40
2024/01/10 04:00:08;;;;;;;37.55;15.55;;;-6.90;99.90;;;;;;5086464;28;20027;-40
2024/01/10 04:02:35;;;;;;;39.40;15.15;;;-6.90;99.90;;;;;;5088064;28;20423;-40
2024/01/10 04:05:01;;;;;;;39.88;16.95;;;-6.90;99.90;;;;;;5081689;28;20039;-40
2024/01/10 04:07:28;;;;;;;36.08;15.63;;;-6.90;99.90;;;;;;5087975;28;20405;-40
2024/01/10 04:09:53;;;;;;;33.42;15.13;;;-7.00;99.90;;;;;;5087420;28;20469;-40
2024/01/10 04:12:19;;;;;;;33.92;14.15;;;-7.00;99.90;;;;;;5087985;28;20069;-40
2024/01/10 04:14:44;;;;;;;33.70;15.55;;;-6.90;99.90;;;;;;5086447;28;20030;-40
2024/01/10 04:17:10;;;;;;;41.10;16.75;;;-7.00;99.90;;;;;;5086507;28;20034;-38
2024/01/10 04:19:36;;;;;;;40.08;16.92;;;-7.00;99.90;;;;;;5087516;28;20260;-38
2024/01/10 04:22:01;;;;;;;44.33;17.35;;;-7.00;99.90;;;;;;5083638;28;20087;-40
2024/01/10 04:24:27;;;;;;;35.35;15.95;;;-7.00;99.90;;;;;;5091469;28;20228;-40
2024/01/10 04:26:52;;;;;;;37.45;16.25;;;-6.90;99.90;;;;;;5091170;28;20020;-40
2024/01/10 04:29:18;;;;;;;41.22;15.93;;;-6.90;99.90;;;;;;5091513;28;20020;-40
2024/01/10 04:31:43;;;;;;;40.25;16.38;;;-6.90;99.90;;;;;;5091427;28;20016;-40
2024/01/10 04:34:09;;;;;;;38.70;15.13;;;-6.90;99.90;;;;;;5091450;28;20031;-40
2024/01/10 04:36:34;;;;;;;39.90;16.25;;;-7.00;99.90;;;;;;5091389;28;20107;-40
2024/01/10 04:39:00;;;;;;;38.58;15.15;;;-7.00;99.90;;;;;;5090954;28;20043;-40
2024/01/10 04:41:26;;;;;;;34.72;14.82;;;-6.90;99.90;;;;;;5091432;28;20028;-40
2024/01/10 04:43:51;;;;;;;34.05;14.88;;;-7.00;99.90;;;;;;5090014;28;20032;-40
2024/01/10 04:46:17;;;;;;;33.05;14.63;;;-7.00;99.90;;;;;;5089570;28;20157;-40
2024/01/10 04:48:43;;;;;;;40.15;15.45;;;-7.00;99.90;;;;;;5089270;28;20021;-40
2024/01/10 04:51:08;;;;;;;37.97;15.57;;;-7.00;99.90;;;;;;5091015;28;20023;-40
2024/01/10 04:53:34;;;;;;;37.35;15.63;;;-7.00;99.90;;;;;;5091054;28;20404;-40
2024/01/10 04:55:59;;;;;;;35.70;16.75;;;-7.10;99.90;;;;;;5090488;28;20714;-40
2024/01/10 04:58:25;;;;;;;41.72;17.23;;;-7.00;99.90;;;;;;5090540;28;20481;-39
2024/01/10 05:00:51;;;;;;;40.35;17.77;;;-7.00;99.90;;;;;;5090468;28;20492;-41
2024/01/10 05:03:16;;;;;;;35.25;15.32;;;-7.00;99.90;;;;;;5090935;28;20036;-40
2024/01/10 05:05:42;;;;;;;40.55;17.38;;;-7.00;99.90;;;;;;5090329;28;20020;-40
2024/01/10 05:08:07;;;;;;;39.22;16.52;;;-7.00;99.90;;;;;;5090383;28;20040;-40
2024/01/10 05:10:33;;;;;;;44.70;17.13;;;-7.10;99.90;;;;;;5090214;28;20669;-40
2024/01/10 05:12:59;;;;;;;53.85;23.35;;;-7.00;99.90;;;;;;5090622;28;20026;-40
2024/01/10 05:15:24;;;;;;;46.17;19.10;;;-7.10;99.90;;;;;;5090324;28;20253;-40
2024/01/10 05:17:50;;;;;;;43.67;18.45;;;-7.00;99.90;;;;;;5088994;28;20020;-40
2024/01/10 05:20:16;;;;;;;43.50;18.17;;;-7.10;99.90;;;;;;5090229;28;20028;-41
2024/01/10 05:22:42;;;;;;;49.00;20.02;;;-7.00;99.90;;;;;;5090353;28;20035;-38
2024/01/10 05:25:08;;;;;;;44.08;18.25;;;-7.00;99.90;;;;;;5089460;28;20031;-40
2024/01/10 05:27:33;;;;;;;48.35;18.95;;;-7.00;99.90;;;;;;5097431;28;20024;-40
2024/01/10 05:29:59;;;;;;;42.63;18.52;;;-7.00;99.90;;;;;;5095847;28;20080;-40
2024/01/10 05:32:26;;;;;;;48.72;20.15;;;-7.10;99.90;;;;;;5096068;28;20023;-40
2024/01/10 05:34:51;;;;;;;50.63;20.63;;;-7.00;99.90;;;;;;5095164;28;20370;-41
2024/01/10 05:37:17;;;;;;;47.00;19.95;;;-7.10;99.90;;;;;;5095518;28;20098;-41
2024/01/10 05:39:43;;;;;;;42.25;18.95;;;-7.10;99.90;;;;;;5097620;28;20042;-40
2024/01/10 05:42:08;;;;;;;53.35;21.33;;;-7.10;99.90;;;;;;5095509;28;20032;-40
2024/01/10 05:44:34;;;;;;;49.20;18.42;;;-7.10;99.90;;;;;;5095341;28;20036;-40
2024/01/10 05:46:59;;;;;;;41.22;18.55;;;-7.10;99.90;;;;;;5094763;28;20019;-39
2024/01/10 05:49:26;;;;;;;43.05;18.23;;;-7.10;99.90;;;;;;5095265;28;20040;-40
2024/01/10 05:51:51;;;;;;;39.15;18.38;;;-7.10;99.90;;;;;;5096205;28;20530;-40
2024/01/10 05:54:18;;;;;;;44.78;19.42;;;-7.10;99.90;;;;;;5095289;28;20039;-39
2024/01/10 05:56:43;;;;;;;57.33;22.42;;;-7.20;99.90;;;;;;5098026;28;20020;-39
2024/01/10 05:59:11;;;;;;;59.72;20.83;;;-7.20;99.90;;;;;;5094980;28;20035;-39
2024/01/10 06:01:38;;;;;;;60.03;23.33;;;-7.10;99.90;;;;;;5097350;28;20060;-38
2024/01/10 06:04:04;;;;;;;46.20;19.67;;;-7.20;99.90;;;;;;5095516;28;20134;-38
2024/01/10 06:06:29;;;;;;;58.30;19.50;;;-7.20;99.90;;;;;;5078309;28;20119;-38
2024/01/10 06:08:55;;;;;;;51.88;19.92;;;-7.20;99.90;;;;;;5096465;28;20107;-38
2024/01/10 06:11:20;;;;;;;47.00;19.85;;;-7.20;99.90;;;;;;5095416;28;20100;-38
2024/01/10 06:13:46;;;;;;;52.33;20.20;;;-7.20;99.90;;;;;;5098413;28;20050;-38
2024/01/10 06:16:13;;;;;;;50.53;20.10;;;-7.20;99.90;;;;;;5095211;28;20071;-38
2024/01/10 06:18:38;;;;;;;54.45;21.45;;;-7.20;99.90;;;;;;5097102;28;20224;-38
2024/01/10 06:21:04;;;;;;;52.58;20.92;;;-7.20;99.90;;;;;;5095503;28;20458;-38
2024/01/10 06:23:30;;;;;;;47.58;20.38;;;-7.20;99.90;;;;;;5094022;28;20028;-38
2024/01/10 06:25:55;;;;;;;47.70;18.88;;;-7.20;99.90;;;;;;5095151;28;20086;-40
2024/01/10 06:28:21;;;;;;;46.92;19.95;;;-7.30;99.90;;;;;;5095243;28;20028;-38
2024/01/10 06:30:47;;;;;;;51.13;20.25;;;-7.30;99.90;;;;;;5097852;28;20027;-38
2024/01/10 06:33:13;;;;;;;56.20;22.58;;;-7.20;99.90;;;;;;5094911;28;20053;-38
2024/01/10 06:35:39;;;;;;;53.00;20.70;;;-7.20;99.90;;;;;;5097534;28;20438;-38
2024/01/10 06:38:04;;;;;;;53.03;23.95;;;-7.20;99.90;;;;;;5095423;28;20158;-38
2024/01/10 06:40:30;;;;;;;57.53;21.33;;;-7.20;99.90;;;;;;5096154;28;20473;-38
2024/01/10 06:42:56;;;;;;;54.45;22.58;;;-7.20;99.90;;;;;;5095284;28;20530;-38
2024/01/10 06:45:22;;;;;;;58.28;22.83;;;-7.30;99.90;;;;;;5091899;28;20374;-39
2024/01/10 06:47:47;;;;;;;46.25;20.55;;;-7.30;99.90;;;;;;5094696;28;20027;-38
2024/01/10 06:50:13;;;;;;;52.00;21.65;;;-7.30;99.90;;;;;;5092228;28;20025;-38
2024/01/10 06:52:38;;;;;;;50.58;21.05;;;-7.30;99.90;;;;;;5094543;28;20031;-38
2024/01/10 06:55:05;;;;;;;59.40;23.05;;;-7.30;99.90;;;;;;5090209;28;20020;-39
2024/01/10 06:57:30;;;;;;;53.00;21.88;;;-7.30;99.90;;;;;;5093156;28;20389;-39
2024/01/10 06:59:56;;;;;;;57.35;24.38;;;-7.30;99.90;;;;;;5092794;28;20028;-39
2024/01/10 07:02:23;;;;;;;48.50;20.10;;;-7.30;99.90;;;;;;5090925;28;20578;-38
2024/01/10 07:04:49;;;;;;;56.13;23.67;;;-7.40;99.90;;;;;;5093488;28;20031;-39
2024/01/10 07:07:14;;;;;;;49.47;21.75;;;-7.30;99.90;;;;;;5094951;28;20076;-39
2024/01/10 07:09:40;;;;;;;54.20;22.67;;;-7.30;99.90;;;;;;5097358;28;20032;-39
2024/01/10 07:12:07;;;;;;;53.83;22.05;;;-7.30;99.90;;;;;;5095471;28;20028;-39
2024/01/10 07:14:32;;;;;;;58.35;21.05;;;-7.30;99.90;;;;;;5096687;28;20054;-39
2024/01/10 07:16:58;;;;;;;60.15;21.83;;;-7.40;99.90;;;;;;5096003;28;20024;-37
2024/01/10 07:19:24;;;;;;;57.75;22.55;;;-7.40;99.90;;;;;;5092846;28;20040;-37
2024/01/10 07:21:50;;;;;;;59.42;24.33;;;-7.40;99.90;;;;;;5090737;28;20024;-36
2024/01/10 07:24:15;;;;;;;55.13;22.67;;;-7.30;99.90;;;;;;5088694;28;20099;-36
2024/01/10 07:26:41;;;;;;;54.47;21.73;;;-7.30;99.90;;;;;;5089250;28;20622;-37
2024/01/10 07:29:08;;;;;;;57.15;23.98;;;-7.30;99.90;;;;;;5088420;28;20091;-36
2024/01/10 07:31:34;;;;;;;56.30;21.65;;;-7.30;99.90;;;;;;5089106;28;20012;-36
2024/01/10 07:34:00;;;;;;;62.25;24.02;;;-7.30;99.90;;;;;;5089179;28;20016;-37
2024/01/10 07:36:29;;;;;;;51.97;22.38;;;-7.30;99.90;;;;;;5088974;28;20031;-36
2024/01/10 07:38:57;;;;;;;56.97;24.33;;;-7.30;99.90;;;;;;5093365;28;20114;-36
2024/01/10 07:41:22;;;;;;;58.05;24.55;;;-7.30;99.90;;;;;;5095494;28;20035;-36
2024/01/10 07:43:48;;;;;;;62.00;25.48;;;-7.20;99.90;;;;;;5098065;28;20031;-37
2024/01/10 07:46:14;;;;;;;54.72;23.20;;;-7.20;99.90;;;;;;5094987;28;20024;-36
2024/01/10 07:48:40;;;;;;;62.03;24.88;;;-7.20;99.90;;;;;;5096006;28;20031;-36
2024/01/10 07:51:06;;;;;;;60.60;24.63;;;-7.20;99.90;;;;;;5095970;28;20600;-37
2024/01/10 07:53:31;;;;;;;61.28;24.90;;;-7.20;99.90;;;;;;5096657;28;20028;-37
2024/01/10 07:55:57;;;;;;;60.45;24.10;;;-7.20;99.90;;;;;;5097063;28;20024;-37
2024/01/10 07:58:22;;;;;;;58.92;25.20;;;-7.20;99.90;;;;;;5098604;28;20103;-37
2024/01/10 08:00:48;;;;;;;64.22;24.02;;;-7.20;99.90;;;;;;5101847;28;20591;-37
2024/01/10 08:03:13;;;;;;;68.38;27.10;;;-7.10;99.90;;;;;;5099503;28;20504;-36
2024/01/10 08:05:39;;;;;;;65.50;26.80;;;-7.10;99.90;;;;;;5101549;28;20458;-37
2024/01/10 08:08:04;;;;;;;54.80;23.58;;;-7.20;99.90;;;;;;5100188;28;20031;-37
2024/01/10 08:10:30;;;;;;;59.63;24.38;;;-7.20;99.90;;;;;;5100180;28;20038;-37
2024/01/10 08:12:56;;;;;;;70.32;27.13;;;-7.10;99.90;;;;;;5100390;28;20027;-37
2024/01/10 08:15:22;;;;;;;65.15;27.10;;;-7.10;99.90;;;;;;5100526;28;20020;-37
2024/01/10 08:17:48;;;;;;;58.20;25.90;;;-7.10;99.90;;;;;;5097919;28;20030;-37
2024/01/10 08:20:14;;;;;;;52.35;22.15;;;-7.10;99.90;;;;;;5096845;28;20039;-38
2024/01/10 08:22:41;;;;;;;61.13;26.08;;;-7.00;99.90;;;;;;5100834;28;20232;-38
2024/01/10 08:25:06;;;;;;;60.00;26.38;;;-7.00;99.90;;;;;;5093001;28;20431;-37
2024/01/10 08:27:33;;;;;;;76.20;27.20;;;-6.90;99.90;;;;;;5096220;28;20024;-38
2024/01/10 08:29:59;;;;;;;60.35;24.88;;;-6.90;99.90;;;;;;5099038;28;20031;-38
2024/01/10 08:32:25;;;;;;;64.60;26.60;;;-6.90;99.90;;;;;;5098064;28;20436;-38
2024/01/10 08:34:50;;;;;;;64.10;27.77;;;-6.90;99.90;;;;;;5096413;28;20020;-38
2024/01/10 08:37:17;;;;;;;70.53;27.25;;;-6.90;99.90;;;;;;5091842;28;20077;-38
2024/01/10 08:39:44;;;;;;;60.15;23.52;;;-7.00;99.90;;;;;;5092830;28;20042;-49
2024/01/10 08:42:10;;;;;;;58.83;24.88;;;-6.90;99.90;;;;;;5098343;28;20059;-49
2024/01/10 08:44:35;;;;;;;67.72;26.88;;;-6.80;99.90;;;;;;5100251;28;20050;-51
2024/01/10 08:47:01;;;;;;;76.57;28.80;;;-6.80;99.90;;;;;;5100196;27;20023;-51
2024/01/10 08:49:26;;;;;;;69.72;26.92;;;-6.80;99.90;;;;;;5099082;28;20103;-52
2024/01/10 08:51:53;;;;;;;65.13;27.42;;;-6.70;99.90;;;;;;5101868;27;20121;-49
2024/01/10 08:54:22;;;;;;;79.93;26.88;;;-6.70;99.90;;;;;;5098290;28;20028;-51
2024/01/10 08:56:48;;;;;;;65.75;25.50;;;-6.70;99.90;;;;;;5100251;28;20033;-48
2024/01/10 08:59:13;;;;;;;69.60;27.38;;;-6.60;99.90;;;;;;5098289;28;20443;-46
2024/01/10 09:01:39;;;;;;;79.45;31.40;;;-6.60;99.90;;;;;;5101180;28;20089;-49
2024/01/10 09:04:05;;;;;;;62.28;26.17;;;-6.60;99.90;;;;;;5099793;28;20040;-48
2024/01/10 09:06:35;;;;;;;66.82;27.83;;;-6.60;99.90;;;;;;5099845;28;20111;-49
2024/01/10 09:09:01;;;;;;;;;;;-6.50;99.90;;;;;;5096128;28;20024;-48
2024/01/10 09:11:26;;;;;;;71.35;27.20;;;-6.50;99.90;;;;;;5092583;28;19969;-48
2024/01/10 09:13:52;;;;;;;64.50;26.50;;;-6.40;99.90;;;;;;5093909;28;20047;-51
2024/01/10 09:16:20;;;;;;;74.50;30.48;;;-6.40;99.90;;;;;;5095776;28;20032;-50
2024/01/10 09:18:46;;;;;;;71.32;28.70;;;-6.40;99.90;;;;;;5098932;28;20020;-49
2024/01/10 09:21:12;;;;;;;81.53;30.92;;;-6.30;99.90;;;;;;5101203;28;20370;-52
2024/01/10 09:23:37;;;;;;;79.68;32.10;;;-6.30;99.90;;;;;;5097950;28;20095;-49
2024/01/10 09:26:03;;;;;;;69.45;27.35;;;-6.30;99.90;;;;;;5102331;28;20051;-50
2024/01/10 09:28:29;;;;;;;82.95;31.42;;;-6.20;99.90;;;;;;5103703;28;20559;-48
2024/01/10 09:30:54;;;;;;;76.07;28.55;;;-6.10;99.90;;;;;;5101801;28;20022;-48
2024/01/10 09:33:21;;;;;;;75.38;31.20;;;-6.10;99.90;;;;;;5097265;28;20039;-38
2024/01/10 09:35:46;;;;;;;81.13;32.55;;;-6.00;99.90;;;;;;5092503;28;20034;-37
2024/01/10 09:38:12;;;;;;;74.32;32.10;;;-6.00;99.90;;;;;;5094712;28;20032;-37
2024/01/10 09:40:38;;;;;;;74.03;31.52;;;-5.90;99.90;;;;;;5092907;28;20036;-40
2024/01/10 09:43:05;;;;;;;83.10;31.75;;;-5.90;99.90;;;;;;5089903;28;20024;-38
2024/01/10 09:45:34;;;;;;;79.93;33.70;;;-5.80;99.90;;;;;;5091346;28;20060;-38
2024/01/10 09:48:00;;;;;;;69.13;31.73;;;-5.70;99.90;;;;;;5096563;28;20123;-38
2024/01/10 09:50:26;;;;;;;81.00;32.55;;;-5.70;99.90;;;;;;5093584;28;20023;-38
2024/01/10 09:52:57;;;;;;;78.03;32.70;;;-5.60;99.90;;;;;;5101394;28;20015;-38
2024/01/10 09:55:23;;;;;;;87.90;33.78;;;-5.50;99.90;;;;;;5098455;28;20019;-38
2024/01/10 09:57:49;;;;;;;75.43;31.88;;;-5.50;99.90;;;;;;5101432;28;20380;-38
2024/01/10 10:00:16;;;;;;;71.80;31.98;;;-5.40;99.90;;;;;;5097989;28;20488;-38
2024/01/10 10:02:42;;;;;;;80.45;35.45;;;-5.30;99.90;;;;;;5100882;28;20096;-38
2024/01/10 10:05:15;;;;;;;75.80;34.28;;;-5.30;99.90;;;;;;5099247;28;20032;-37
2024/01/10 10:07:44;;;;;;;87.82;37.15;;;-5.30;99.90;;;;;;5100446;28;20019;-38
2024/01/10 10:10:11;;;;;;;80.30;33.65;;;-5.20;99.90;;;;;;5098615;28;20082;-38
2024/01/10 10:12:52;;;;;;;77.22;33.22;;;-5.20;99.90;;;;;;5100260;28;20111;-38
2024/01/10 10:15:21;;;;;;;86.30;35.10;;;-5.10;99.90;;;;;;5092635;28;20039;-38
2024/01/10 10:17:48;;;;;;;80.60;32.10;;;-5.00;99.90;;;;;;5093140;28;20524;-38
2024/01/10 10:20:36;;;;;;;89.10;33.97;;;-5.00;99.90;;;;;;5093774;28;20035;-38
2024/01/10 10:23:06;;;;;;;87.10;34.80;;;-4.90;99.90;;;;;;5095541;28;20024;-38
2024/01/10 10:25:32;;;;;;;;;;;-4.80;99.90;;;;;;5099850;28;20020;-38
2024/01/10 10:27:58;;;;;;;72.07;31.20;;;-4.70;99.90;;;;;;5096385;28;19930;-38
2024/01/10 10:30:24;;;;;;;81.22;33.00;;;-4.70;99.90;;;;;;5101863;28;20041;-38
2024/01/10 10:32:50;;;;;;;90.85;36.40;;;-4.50;99.90;;;;;;5097947;28;20098;-38
2024/01/10 10:35:18;;;;;;;73.45;31.48;;;-4.40;99.90;;;;;;5101042;28;20587;-38
2024/01/10 10:37:43;;;;;;;83.45;34.67;;;-4.30;99.90;;;;;;5101306;28;20534;-38
2024/01/10 10:40:09;;;;;;;71.57;31.42;;;-4.20;99.90;;;;;;5097645;28;20020;-38
2024/01/10 10:42:42;;;;;;;78.95;32.42;;;-4.00;99.90;;;;;;5089113;28;20020;-38
2024/01/10 10:45:11;;;;;;;89.57;35.75;;;-3.40;99.90;;;;;;5092739;28;20024;-39
2024/01/10 10:47:38;;;;;;;74.57;33.80;;;-1.80;99.90;;;;;;5097244;28;20024;-39
2024/01/10 10:50:06;;;;;;;75.75;34.95;;;-0.20;99.90;;;;;;5094944;28;20024;-39
2024/01/10 10:52:32;;;;;;;69.47;33.85;;;1.20;95.30;;;;;;5095860;28;20536;-40
2024/01/10 10:54:59;;;;;;;64.63;32.90;;;2.20;93.60;;;;;;5099059;28;20481;-39
2024/01/10 10:57:28;;;;;;;61.55;33.72;;;3.80;91.40;;;;;;5098585;28;20381;-39
2024/01/10 10:59:57;;;;;;;58.33;34.00;;;4.70;85.50;;;;;;5101219;28;20053;-39
2024/01/10 11:02:26;;;;;;;66.10;36.25;;;5.90;82.10;;;;;;5095142;28;20103;-39
2024/01/10 11:04:54;;;;;;;60.10;34.88;;;6.60;73.70;;;;;;5101254;28;20012;-39
2024/01/10 11:07:20;;;;;;;57.13;33.30;;;6.50;74.60;;;;;;5098004;28;20020;-39
2024/01/10 11:09:47;;;;;;;56.03;34.67;;;7.20;74.90;;;;;;5100769;28;20054;-39
2024/01/10 11:12:25;;;;;;;57.03;33.63;;;7.60;71.20;;;;;;5098729;28;20023;-39
2024/01/10 11:15:12;;;;;;;55.55;35.83;;;7.60;71.00;;;;;;5093091;28;20097;-40
2024/01/10 11:18:03;;;;;;;58.60;33.88;;;8.10;68.70;;;;;;5100837;28;20442;-40
2024/01/10 11:20:39;;;;;;;51.63;32.53;;;8.00;67.70;;;;;;5095418;28;20488;-39
2024/01/10 11:23:23;;;;;;;53.28;33.65;;;8.60;67.30;;;;;;5100350;28;20020;-40
2024/01/10 11:25:50;;;;;;;57.45;33.97;;;8.60;66.10;;;;;;5092730;28;20027;-40
2024/01/10 11:28:17;;;;;;;54.15;33.88;;;9.20;65.10;;;;;;5098683;28;20119;-40
2024/01/10 11:30:51;;;;;;;52.75;32.60;;;9.00;64.20;;;;;;5092689;28;20031;-40
2024/01/10 11:33:44;;;;;;;53.50;33.20;;;8.70;65.10;;;;;;5096964;28;20047;-40
2024/01/10 11:36:12;;;;;;;52.72;35.10;;;8.30;65.50;;;;;;5100078;28;20050;-40
2024/01/10 11:38:54;;;;;;;52.70;32.63;;;7.80;65.10;;;;;;5104054;28;20036;-39
2024/01/10 11:41:28;;;;;;;54.72;33.88;;;6.90;67.10;;;;;;5102152;28;20016;-39
2024/01/10 11:44:17;;;;;;;52.25;32.38;;;6.50;67.40;;;;;;5096428;28;20023;-39
2024/01/10 11:46:43;;;;;;;52.60;33.80;;;5.90;69.70;;;;;;5104968;28;20039;-39
2024/01/10 11:49:11;;;;;;;58.83;34.15;;;4.90;68.70;;;;;;5103114;28;20299;-40
2024/01/10 11:51:37;;;;;;;57.80;32.58;;;4.00;71.70;;;;;;5104183;28;20020;-39
2024/01/10 11:54:03;;;;;;;60.78;33.35;;;3.10;73.70;;;;;;5104573;28;20028;-39
2024/01/10 11:56:42;;;;;;;59.60;33.65;;;2.10;77.60;;;;;;5102295;28;20095;-38
2024/01/10 11:59:13;;;;;;;62.83;33.20;;;1.50;79.30;;;;;;5103414;28;20019;-38
2024/01/10 12:01:39;;;;;;;57.72;29.88;;;1.00;82.90;;;;;;5103534;28;20473;-38
2024/01/10 12:04:06;;;;;;;65.57;33.55;;;0.80;82.50;;;;;;5103548;28;20388;-38
2024/01/10 12:06:34;;;;;;;58.90;30.65;;;0.40;83.60;;;;;;5102438;28;20042;-38
2024/01/10 12:09:03;;;;;;;61.72;29.90;;;0.10;85.60;;;;;;5103893;28;20200;-38
2024/01/10 12:11:28;;;;;;;64.28;30.20;;;0.00;86.60;;;;;;5102408;28;20013;-38
2024/01/10 12:13:54;;;;;;;60.50;27.85;;;-0.20;86.50;;;;;;5105777;28;20596;-38
2024/01/10 12:16:22;;;;;;;57.88;27.23;;;-0.40;86.70;;;;;;5096385;28;20032;-38
2024/01/10 12:18:48;;;;;;;62.03;28.50;;;-0.60;88.90;;;;;;5095406;28;20307;-38
2024/01/10 12:21:14;;;;;;;64.30;29.88;;;-0.80;89.70;;;;;;5103239;28;20532;-38
2024/01/10 12:23:40;;;;;;;70.80;29.17;;;-0.80;89.80;;;;;;5104878;28;20376;-38
2024/01/10 12:26:09;;;;;;;60.80;28.05;;;-0.80;91.20;;;;;;5104236;28;20019;-38